sensor_id;sensor_type;location;lat;lon;timestamp;pressure;altitude;pressure_sealevel;temperature;humidity
18504;BME280;9381;54.244;10.074;2023-03-17T00:02:48;100689.94;;;7.59;62.99
18504;BME280;9381;54.244;10.074;2023-03-17T00:07:51;100688.72;;;7.62;63.72
18504;BME280;9381;54.244;10.074;2023-03-17T00:12:53;100704.63;;;7.57;63.30
18504;BME280;9381;54.244;10.074;2023-03-17T00:17:55;100705.88;;;7.54;63.86
18504;BME280;9381;54.244;10.074;2023-03-17T00:22:59;100698.72;;;7.40;64.74
18504;BME280;9381;54.244;10.074;2023-03-17T00:28:05;100687.91;;;7.27;65.42
18504;BME280;9381;54.244;10.074;2023-03-17T00:33:08;100688.63;;;7.15;65.58
18504;BME280;9381;54.244;10.074;2023-03-17T00:38:16;100683.47;;;6.92;66.57
18504;BME280;9381;54.244;10.074;2023-03-17T00:43:17;100686.97;;;7.14;66.08
18504;BME280;9381;54.244;10.074;2023-03-17T00:48:19;100683.53;;;6.99;66.54
18504;BME280;9381;54.244;10.074;2023-03-17T00:53:20;100684.38;;;6.99;66.56
18504;BME280;9381;54.244;10.074;2023-03-17T01:03:22;100656.59;;;6.92;68.15
18504;BME280;9381;54.244;10.074;2023-03-17T01:08:23;100637.91;;;6.84;68.52
18504;BME280;9381;54.244;10.074;2023-03-17T01:13:24;100624.91;;;6.88;67.99
18504;BME280;9381;54.244;10.074;2023-03-17T01:18:25;100630.91;;;6.90;68.52
18504;BME280;9381;54.244;10.074;2023-03-17T01:23:26;100626.84;;;6.94;68.91
18504;BME280;9381;54.244;10.074;2023-03-17T01:28:26;100650.19;;;6.93;69.34
18504;BME280;9381;54.244;10.074;2023-03-17T01:33:27;100642.50;;;6.90;69.66
18504;BME280;9381;54.244;10.074;2023-03-17T01:38:28;100630.09;;;6.89;70.12
18504;BME280;9381;54.244;10.074;2023-03-17T01:43:29;100627.56;;;6.81;70.40
18504;BME280;9381;54.244;10.074;2023-03-17T01:48:33;100620.56;;;6.87;70.76
18504;BME280;9381;54.244;10.074;2023-03-17T01:53:37;100619.09;;;6.84;70.86
18504;BME280;9381;54.244;10.074;2023-03-17T01:58:39;100604.75;;;6.77;71.01
18504;BME280;9381;54.244;10.074;2023-03-17T02:03:40;100599.66;;;6.61;71.50
18504;BME280;9381;54.244;10.074;2023-03-17T02:08:41;100584.69;;;6.52;72.18
18504;BME280;9381;54.244;10.074;2023-03-17T02:13:43;100583.75;;;6.60;72.40
18504;BME280;9381;54.244;10.074;2023-03-17T02:18:43;100571.00;;;6.41;72.76
18504;BME280;9381;54.244;10.074;2023-03-17T02:23:44;100578.06;;;6.48;73.08
18504;BME280;9381;54.244;10.074;2023-03-17T02:28:44;100580.78;;;6.27;73.20
18504;BME280;9381;54.244;10.074;2023-03-17T02:33:45;100590.09;;;6.31;73.18
18504;BME280;9381;54.244;10.074;2023-03-17T02:38:45;100565.25;;;6.23;74.24
18504;BME280;9381;54.244;10.074;2023-03-17T02:43:46;100582.97;;;6.17;74.85
18504;BME280;9381;54.244;10.074;2023-03-17T02:48:47;100603.22;;;6.20;74.61
18504;BME280;9381;54.244;10.074;2023-03-17T02:53:48;100603.03;;;6.21;74.92
18504;BME280;9381;54.244;10.074;2023-03-17T02:58:49;100598.03;;;6.18;75.54
18504;BME280;9381;54.244;10.074;2023-03-17T03:03:50;100572.84;;;6.19;75.62
18504;BME280;9381;54.244;10.074;2023-03-17T03:08:51;100563.25;;;6.10;75.99
18504;BME280;9381;54.244;10.074;2023-03-17T03:13:51;100552.28;;;6.26;75.59
18504;BME280;9381;54.244;10.074;2023-03-17T03:18:51;100553.94;;;6.27;75.25
18504;BME280;9381;54.244;10.074;2023-03-17T03:23:52;100558.91;;;6.30;75.04
18504;BME280;9381;54.244;10.074;2023-03-17T03:28:52;100560.19;;;6.34;75.12
18504;BME280;9381;54.244;10.074;2023-03-17T03:33:53;100574.13;;;6.44;75.05
18504;BME280;9381;54.244;10.074;2023-03-17T03:38:53;100574.34;;;6.49;74.82
18504;BME280;9381;54.244;10.074;2023-03-17T03:43:54;100536.66;;;6.36;75.73
18504;BME280;9381;54.244;10.074;2023-03-17T03:48:54;100544.56;;;6.44;75.43
18504;BME280;9381;54.244;10.074;2023-03-17T03:53:54;100518.34;;;6.46;75.99
18504;BME280;9381;54.244;10.074;2023-03-17T03:58:55;100542.16;;;6.56;74.97
18504;BME280;9381;54.244;10.074;2023-03-17T04:03:56;100511.97;;;6.54;75.56
18504;BME280;9381;54.244;10.074;2023-03-17T04:08:56;100506.84;;;6.59;75.02
18504;BME280;9381;54.244;10.074;2023-03-17T04:13:56;100497.16;;;6.58;75.42
18504;BME280;9381;54.244;10.074;2023-03-17T04:18:57;100517.31;;;6.47;75.72
18504;BME280;9381;54.244;10.074;2023-03-17T04:23:57;100526.41;;;6.46;76.10
18504;BME280;9381;54.244;10.074;2023-03-17T04:28:58;100523.44;;;6.62;75.62
18504;BME280;9381;54.244;10.074;2023-03-17T04:33:58;100497.38;;;6.63;75.34
18504;BME280;9381;54.244;10.074;2023-03-17T04:38:58;100476.75;;;6.42;75.61
18504;BME280;9381;54.244;10.074;2023-03-17T04:43:58;100482.88;;;6.57;76.16
18504;BME280;9381;54.244;10.074;2023-03-17T04:48:59;100483.31;;;6.33;76.39
18504;BME280;9381;54.244;10.074;2023-03-17T04:53:59;100468.50;;;6.44;76.38
18504;BME280;9381;54.244;10.074;2023-03-17T04:59:00;100478.50;;;6.29;76.65
18504;BME280;9381;54.244;10.074;2023-03-17T05:04:01;100474.13;;;6.21;77.51
18504;BME280;9381;54.244;10.074;2023-03-17T05:09:02;100456.75;;;6.17;77.54
18504;BME280;9381;54.244;10.074;2023-03-17T05:14:02;100458.47;;;6.25;77.35
18504;BME280;9381;54.244;10.074;2023-03-17T05:19:03;100457.44;;;6.26;77.42
18504;BME280;9381;54.244;10.074;2023-03-17T05:24:03;100477.44;;;6.23;77.49
18504;BME280;9381;54.244;10.074;2023-03-17T05:29:04;100469.91;;;6.12;77.99
18504;BME280;9381;54.244;10.074;2023-03-17T05:34:04;100460.69;;;6.21;77.83
18504;BME280;9381;54.244;10.074;2023-03-17T05:39:05;100461.22;;;6.10;78.30
18504;BME280;9381;54.244;10.074;2023-03-17T05:44:06;100447.53;;;6.05;78.47
18504;BME280;9381;54.244;10.074;2023-03-17T05:49:07;100452.41;;;5.95;79.30
18504;BME280;9381;54.244;10.074;2023-03-17T05:54:07;100452.91;;;6.05;78.53
18504;BME280;9381;54.244;10.074;2023-03-17T05:59:08;100470.19;;;6.17;78.20
18504;BME280;9381;54.244;10.074;2023-03-17T06:04:09;100476.19;;;6.19;78.60
18504;BME280;9381;54.244;10.074;2023-03-17T06:09:09;100461.63;;;6.07;78.84
18504;BME280;9381;54.244;10.074;2023-03-17T06:14:10;100471.56;;;6.13;78.70
18504;BME280;9381;54.244;10.074;2023-03-17T06:19:11;100463.28;;;6.08;79.11
18504;BME280;9381;54.244;10.074;2023-03-17T06:24:11;100436.53;;;6.21;79.43
18504;BME280;9381;54.244;10.074;2023-03-17T06:29:12;100449.19;;;6.27;78.97
18504;BME280;9381;54.244;10.074;2023-03-17T06:34:12;100440.41;;;6.40;78.47
18504;BME280;9381;54.244;10.074;2023-03-17T06:39:19;100428.81;;;6.39;78.49
18504;BME280;9381;54.244;10.074;2023-03-17T06:44:20;100427.38;;;6.43;78.88
18504;BME280;9381;54.244;10.074;2023-03-17T06:49:20;100444.63;;;6.55;78.32
18504;BME280;9381;54.244;10.074;2023-03-17T06:54:20;100448.44;;;6.74;77.95
18504;BME280;9381;54.244;10.074;2023-03-17T06:59:23;100451.78;;;6.76;77.43
18504;BME280;9381;54.244;10.074;2023-03-17T07:04:24;100446.09;;;6.98;77.21
18504;BME280;9381;54.244;10.074;2023-03-17T07:09:24;100433.72;;;7.10;76.87
18504;BME280;9381;54.244;10.074;2023-03-17T07:14:24;100438.69;;;7.13;75.76
18504;BME280;9381;54.244;10.074;2023-03-17T07:19:26;100425.09;;;7.34;76.91
18504;BME280;9381;54.244;10.074;2023-03-17T07:24:27;100426.38;;;7.51;75.46
18504;BME280;9381;54.244;10.074;2023-03-17T07:29:27;100433.03;;;7.55;74.47
18504;BME280;9381;54.244;10.074;2023-03-17T07:34:28;100443.81;;;7.75;74.54
18504;BME280;9381;54.244;10.074;2023-03-17T07:39:28;100442.16;;;7.80;74.13
18504;BME280;9381;54.244;10.074;2023-03-17T07:44:28;100440.53;;;7.92;74.20
18504;BME280;9381;54.244;10.074;2023-03-17T07:49:29;100431.00;;;8.09;73.86
18504;BME280;9381;54.244;10.074;2023-03-17T07:54:30;100420.00;;;8.43;72.60
18504;BME280;9381;54.244;10.074;2023-03-17T07:59:32;100426.00;;;8.58;71.81
18504;BME280;9381;54.244;10.074;2023-03-17T08:04:32;100424.22;;;8.96;71.44
18504;BME280;9381;54.244;10.074;2023-03-17T08:09:33;100429.72;;;9.14;70.37
18504;BME280;9381;54.244;10.074;2023-03-17T08:14:33;100421.28;;;9.04;70.15
18504;BME280;9381;54.244;10.074;2023-03-17T08:19:34;100412.19;;;9.36;69.93
18504;BME280;9381;54.244;10.074;2023-03-17T08:24:34;100399.66;;;9.48;69.20
18504;BME280;9381;54.244;10.074;2023-03-17T08:29:36;100396.09;;;9.54;69.53
18504;BME280;9381;54.244;10.074;2023-03-17T08:34:36;100395.16;;;9.66;69.61
18504;BME280;9381;54.244;10.074;2023-03-17T08:39:37;100389.75;;;9.97;69.04
18504;BME280;9381;54.244;10.074;2023-03-17T08:44:37;100403.25;;;10.22;69.42
18504;BME280;9381;54.244;10.074;2023-03-17T08:49:37;100391.84;;;10.62;69.04
18504;BME280;9381;54.244;10.074;2023-03-17T08:54:37;100400.34;;;10.84;67.25
18504;BME280;9381;54.244;10.074;2023-03-17T08:59:38;100402.84;;;11.15;66.29
18504;BME280;9381;54.244;10.074;2023-03-17T09:04:39;100397.97;;;11.35;64.16
18504;BME280;9381;54.244;10.074;2023-03-17T09:09:40;100388.41;;;11.21;64.67
18504;BME280;9381;54.244;10.074;2023-03-17T09:14:41;100391.28;;;11.08;66.00
18504;BME280;9381;54.244;10.074;2023-03-17T09:19:41;100380.44;;;11.08;66.24
18504;BME280;9381;54.244;10.074;2023-03-17T09:24:42;100369.31;;;11.16;65.58
18504;BME280;9381;54.244;10.074;2023-03-17T09:29:42;100359.91;;;11.48;65.96
18504;BME280;9381;54.244;10.074;2023-03-17T09:34:43;100363.63;;;11.76;64.17
18504;BME280;9381;54.244;10.074;2023-03-17T09:39:43;100366.00;;;11.84;62.28
18504;BME280;9381;54.244;10.074;2023-03-17T09:49:59;100361.84;;;11.59;63.09
18504;BME280;9381;54.244;10.074;2023-03-17T09:55:03;100347.53;;;11.52;64.04
18504;BME280;9381;54.244;10.074;2023-03-17T10:00:14;100353.63;;;11.76;65.28
18504;BME280;9381;54.244;10.074;2023-03-17T10:05:34;100359.09;;;11.88;63.83
18504;BME280;9381;54.244;10.074;2023-03-17T10:16:13;100364.88;;;12.26;64.14
18504;BME280;9381;54.244;10.074;2023-03-17T10:21:17;100364.88;;;12.26;65.21
18504;BME280;9381;54.244;10.074;2023-03-17T10:26:31;100356.16;;;12.24;63.83
18504;BME280;9381;54.244;10.074;2023-03-17T10:31:33;100349.41;;;12.49;62.91
18504;BME280;9381;54.244;10.074;2023-03-17T10:36:37;100344.78;;;12.61;61.35
18504;BME280;9381;54.244;10.074;2023-03-17T10:41:39;100343.81;;;13.18;63.77
18504;BME280;9381;54.244;10.074;2023-03-17T10:46:52;100333.97;;;13.29;59.95
18504;BME280;9381;54.244;10.074;2023-03-17T10:51:53;100343.91;;;14.72;58.33
18504;BME280;9381;54.244;10.074;2023-03-17T10:57:00;100323.31;;;15.50;56.42
18504;BME280;9381;54.244;10.074;2023-03-17T11:02:06;100324.84;;;16.87;51.62
18504;BME280;9381;54.244;10.074;2023-03-17T11:07:20;100313.69;;;17.03;52.47
18504;BME280;9381;54.244;10.074;2023-03-17T11:12:26;100306.06;;;16.44;51.29
18504;BME280;9381;54.244;10.074;2023-03-17T11:17:44;100311.50;;;15.71;52.02
18504;BME280;9381;54.244;10.074;2023-03-17T11:28:30;100291.00;;;15.10;54.78
18504;BME280;9381;54.244;10.074;2023-03-17T11:38:52;100296.19;;;14.26;56.58
18504;BME280;9381;54.244;10.074;2023-03-17T11:49:36;100274.38;;;14.21;59.47
18504;BME280;9381;54.244;10.074;2023-03-17T11:54:55;100258.06;;;14.21;58.85
18504;BME280;9381;54.244;10.074;2023-03-17T12:00:05;100245.28;;;14.43;58.19
18504;BME280;9381;54.244;10.074;2023-03-17T12:05:13;100239.72;;;14.76;59.66
18504;BME280;9381;54.244;10.074;2023-03-17T12:10:32;100239.22;;;15.32;58.15
18504;BME280;9381;54.244;10.074;2023-03-17T12:15:43;100244.97;;;16.50;55.55
18504;BME280;9381;54.244;10.074;2023-03-17T12:20:56;100242.44;;;17.35;52.91
18504;BME280;9381;54.244;10.074;2023-03-17T12:26:02;100243.84;;;17.82;51.21
18504;BME280;9381;54.244;10.074;2023-03-17T12:31:12;100241.38;;;17.95;48.34
18504;BME280;9381;54.244;10.074;2023-03-17T12:36:15;100238.81;;;18.97;50.82
18504;BME280;9381;54.244;10.074;2023-03-17T12:41:31;100224.53;;;19.00;50.29
18504;BME280;9381;54.244;10.074;2023-03-17T12:46:49;100240.38;;;19.08;48.01
18504;BME280;9381;54.244;10.074;2023-03-17T12:53:12;100260.03;;;18.77;47.47
18504;BME280;9381;54.244;10.074;2023-03-17T12:57:43;100265.75;;;18.80;48.39
18504;BME280;9381;54.244;10.074;2023-03-17T13:02:49;100267.91;;;18.88;46.80
18504;BME280;9381;54.244;10.074;2023-03-17T13:07:53;100264.44;;;18.73;46.32
18504;BME280;9381;54.244;10.074;2023-03-17T13:13:04;100246.97;;;19.07;46.91
18504;BME280;9381;54.244;10.074;2023-03-17T13:23:33;100248.03;;;19.11;46.47
18504;BME280;9381;54.244;10.074;2023-03-17T13:33:34;100266.38;;;19.21;46.52
18504;BME280;9381;54.244;10.074;2023-03-17T13:49:23;100266.47;;;18.27;47.34
18504;BME280;9381;54.244;10.074;2023-03-17T13:59:52;100249.53;;;18.10;47.93
18504;BME280;9381;54.244;10.074;2023-03-17T14:05:04;100246.78;;;18.15;47.67
18504;BME280;9381;54.244;10.074;2023-03-17T14:10:05;100262.63;;;18.38;48.50
18504;BME280;9381;54.244;10.074;2023-03-17T14:15:13;100265.38;;;18.33;48.46
18504;BME280;9381;54.244;10.074;2023-03-17T14:25:21;100247.66;;;18.01;48.97
18504;BME280;9381;54.244;10.074;2023-03-17T14:30:28;100236.16;;;17.94;49.72
18504;BME280;9381;54.244;10.074;2023-03-17T14:35:34;100236.44;;;17.73;51.03
18504;BME280;9381;54.244;10.074;2023-03-17T14:40:35;100233.72;;;17.78;50.92
18504;BME280;9381;54.244;10.074;2023-03-17T14:45:47;100245.75;;;17.72;50.92
18504;BME280;9381;54.244;10.074;2023-03-17T14:50:52;100241.91;;;17.73;52.41
18504;BME280;9381;54.244;10.074;2023-03-17T14:55:53;100243.56;;;17.74;50.99
18504;BME280;9381;54.244;10.074;2023-03-17T15:01:22;100233.19;;;17.71;52.11
18504;BME280;9381;54.244;10.074;2023-03-17T15:06:28;100238.09;;;17.74;51.18
18504;BME280;9381;54.244;10.074;2023-03-17T15:11:39;100243.03;;;17.77;51.07
18504;BME280;9381;54.244;10.074;2023-03-17T15:16:45;100251.78;;;17.54;49.71
18504;BME280;9381;54.244;10.074;2023-03-17T15:21:49;100245.47;;;17.78;49.16
18504;BME280;9381;54.244;10.074;2023-03-17T15:26:49;100237.00;;;17.80;50.38
18504;BME280;9381;54.244;10.074;2023-03-17T15:31:50;100225.22;;;17.79;49.04
18504;BME280;9381;54.244;10.074;2023-03-17T15:36:50;100232.88;;;17.77;49.60
18504;BME280;9381;54.244;10.074;2023-03-17T15:41:50;100239.75;;;17.55;49.64
18504;BME280;9381;54.244;10.074;2023-03-17T15:46:51;100238.38;;;17.37;50.01
18504;BME280;9381;54.244;10.074;2023-03-17T15:51:52;100242.41;;;17.30;49.96
18504;BME280;9381;54.244;10.074;2023-03-17T15:56:52;100240.78;;;17.29;50.41
18504;BME280;9381;54.244;10.074;2023-03-17T16:01:52;100243.78;;;17.17;50.49
18504;BME280;9381;54.244;10.074;2023-03-17T16:06:53;100247.84;;;17.00;51.16
18504;BME280;9381;54.244;10.074;2023-03-17T16:11:53;100240.25;;;17.12;50.84
18504;BME280;9381;54.244;10.074;2023-03-17T16:16:54;100250.59;;;16.95;51.07
18504;BME280;9381;54.244;10.074;2023-03-17T16:21:55;100248.38;;;16.92;51.92
18504;BME280;9381;54.244;10.074;2023-03-17T16:26:56;100243.72;;;16.82;52.23
18504;BME280;9381;54.244;10.074;2023-03-17T16:31:56;100246.97;;;16.74;52.45
18504;BME280;9381;54.244;10.074;2023-03-17T16:36:57;100257.53;;;16.56;53.29
18504;BME280;9381;54.244;10.074;2023-03-17T16:41:59;100244.16;;;16.54;54.20
18504;BME280;9381;54.244;10.074;2023-03-17T16:47:00;100244.84;;;16.35;54.99
18504;BME280;9381;54.244;10.074;2023-03-17T16:52:00;100242.56;;;16.12;57.08
18504;BME280;9381;54.244;10.074;2023-03-17T16:57:00;100224.16;;;15.92;58.07
18504;BME280;9381;54.244;10.074;2023-03-17T17:02:01;100220.44;;;15.67;60.98
18504;BME280;9381;54.244;10.074;2023-03-17T17:07:01;100220.44;;;15.67;60.36
18504;BME280;9381;54.244;10.074;2023-03-17T17:12:02;100243.44;;;15.49;62.32
18504;BME280;9381;54.244;10.074;2023-03-17T17:17:03;100254.97;;;15.30;62.31
18504;BME280;9381;54.244;10.074;2023-03-17T17:22:03;100266.28;;;15.17;63.95
18504;BME280;9381;54.244;10.074;2023-03-17T17:27:04;100266.31;;;14.95;65.37
18504;BME280;9381;54.244;10.074;2023-03-17T17:32:04;100287.56;;;14.72;64.72
18504;BME280;9381;54.244;10.074;2023-03-17T17:37:08;100286.00;;;14.76;62.99
18504;BME280;9381;54.244;10.074;2023-03-17T17:42:09;100289.59;;;14.60;65.34
18504;BME280;9381;54.244;10.074;2023-03-17T17:47:11;100307.34;;;14.46;65.93
18504;BME280;9381;54.244;10.074;2023-03-17T17:52:11;100293.41;;;14.21;66.50
18504;BME280;9381;54.244;10.074;2023-03-17T17:57:12;100293.66;;;14.03;67.33
18504;BME280;9381;54.244;10.074;2023-03-17T18:02:12;100286.84;;;13.84;67.87
18504;BME280;9381;54.244;10.074;2023-03-17T18:07:13;100292.88;;;13.70;68.81
18504;BME280;9381;54.244;10.074;2023-03-17T18:12:13;100293.50;;;13.60;68.86
18504;BME280;9381;54.244;10.074;2023-03-17T18:17:14;100289.72;;;13.45;69.31
18504;BME280;9381;54.244;10.074;2023-03-17T18:22:20;100289.22;;;13.31;70.46
18504;BME280;9381;54.244;10.074;2023-03-17T18:27:21;100305.91;;;13.23;70.80
18504;BME280;9381;54.244;10.074;2023-03-17T18:32:22;100316.06;;;13.16;71.47
18504;BME280;9381;54.244;10.074;2023-03-17T18:37:23;100321.78;;;13.15;72.04
18504;BME280;9381;54.244;10.074;2023-03-17T18:42:24;100308.25;;;13.03;73.42
18504;BME280;9381;54.244;10.074;2023-03-17T18:47:24;100304.94;;;13.01;73.80
18504;BME280;9381;54.244;10.074;2023-03-17T18:52:30;100314.03;;;12.95;74.81
18504;BME280;9381;54.244;10.074;2023-03-17T18:57:32;100306.25;;;12.87;74.67
18504;BME280;9381;54.244;10.074;2023-03-17T19:02:33;100287.75;;;12.84;75.24
18504;BME280;9381;54.244;10.074;2023-03-17T19:07:34;100279.50;;;12.79;76.19
18504;BME280;9381;54.244;10.074;2023-03-17T19:12:34;100283.38;;;12.83;76.46
18504;BME280;9381;54.244;10.074;2023-03-17T19:17:35;100296.63;;;12.80;76.05
18504;BME280;9381;54.244;10.074;2023-03-17T19:22:36;100293.09;;;12.68;75.71
18504;BME280;9381;54.244;10.074;2023-03-17T19:27:36;100293.16;;;12.56;75.77
18504;BME280;9381;54.244;10.074;2023-03-17T19:32:37;100306.00;;;12.49;75.16
18504;BME280;9381;54.244;10.074;2023-03-17T19:37:37;100303.66;;;12.41;75.56
18504;BME280;9381;54.244;10.074;2023-03-17T19:42:38;100312.38;;;12.32;75.86
18504;BME280;9381;54.244;10.074;2023-03-17T19:47:38;100309.81;;;12.25;76.23
18504;BME280;9381;54.244;10.074;2023-03-17T19:52:40;100302.50;;;12.14;76.65
18504;BME280;9381;54.244;10.074;2023-03-17T19:57:40;100312.41;;;11.97;76.52
18504;BME280;9381;54.244;10.074;2023-03-17T20:02:41;100300.06;;;11.90;76.99
18504;BME280;9381;54.244;10.074;2023-03-17T20:07:41;100299.09;;;11.84;76.81
18504;BME280;9381;54.244;10.074;2023-03-17T20:12:42;100301.22;;;11.82;77.31
18504;BME280;9381;54.244;10.074;2023-03-17T20:17:44;100296.59;;;11.71;77.53
18504;BME280;9381;54.244;10.074;2023-03-17T20:22:45;100277.97;;;11.63;78.09
18504;BME280;9381;54.244;10.074;2023-03-17T20:27:46;100273.81;;;11.50;78.89
18504;BME280;9381;54.244;10.074;2023-03-17T20:32:47;100276.28;;;11.40;79.86
18504;BME280;9381;54.244;10.074;2023-03-17T20:37:47;100272.44;;;11.18;80.78
18504;BME280;9381;54.244;10.074;2023-03-17T20:42:47;100264.00;;;11.26;80.77
18504;BME280;9381;54.244;10.074;2023-03-17T20:47:47;100255.88;;;11.26;80.01
18504;BME280;9381;54.244;10.074;2023-03-17T20:52:48;100261.91;;;11.28;79.89
18504;BME280;9381;54.244;10.074;2023-03-17T20:57:48;100277.91;;;11.29;79.86
18504;BME280;9381;54.244;10.074;2023-03-17T21:02:50;100268.50;;;11.32;79.77
18504;BME280;9381;54.244;10.074;2023-03-17T21:07:51;100261.91;;;11.39;78.93
18504;BME280;9381;54.244;10.074;2023-03-17T21:12:51;100253.56;;;11.41;79.00
18504;BME280;9381;54.244;10.074;2023-03-17T21:17:52;100251.44;;;11.43;77.83
18504;BME280;9381;54.244;10.074;2023-03-17T21:22:52;100252.75;;;11.52;77.20
18504;BME280;9381;54.244;10.074;2023-03-17T21:27:53;100238.91;;;11.60;76.98
18504;BME280;9381;54.244;10.074;2023-03-17T21:32:53;100243.75;;;11.69;76.79
18504;BME280;9381;54.244;10.074;2023-03-17T21:37:54;100229.72;;;11.72;76.68
18504;BME280;9381;54.244;10.074;2023-03-17T21:42:57;100220.41;;;11.68;77.29
18504;BME280;9381;54.244;10.074;2023-03-17T21:47:59;100222.75;;;11.76;77.68
18504;BME280;9381;54.244;10.074;2023-03-17T21:53:00;100227.00;;;11.72;77.80
18504;BME280;9381;54.244;10.074;2023-03-17T21:58:00;100224.06;;;11.73;78.26
18504;BME280;9381;54.244;10.074;2023-03-17T22:03:01;100240.56;;;11.83;78.03
18504;BME280;9381;54.244;10.074;2023-03-17T22:08:01;100244.69;;;11.74;78.72
18504;BME280;9381;54.244;10.074;2023-03-17T22:13:02;100234.44;;;11.76;78.78
18504;BME280;9381;54.244;10.074;2023-03-17T22:18:02;100232.78;;;11.75;79.26
18504;BME280;9381;54.244;10.074;2023-03-17T22:23:03;100242.78;;;11.75;79.73
18504;BME280;9381;54.244;10.074;2023-03-17T22:28:03;100245.75;;;11.73;79.66
18504;BME280;9381;54.244;10.074;2023-03-17T22:33:04;100245.38;;;11.81;79.55
18504;BME280;9381;54.244;10.074;2023-03-17T22:38:06;100232.78;;;11.75;79.73
18504;BME280;9381;54.244;10.074;2023-03-17T22:43:07;100229.22;;;11.63;80.28
18504;BME280;9381;54.244;10.074;2023-03-17T22:48:08;100232.56;;;11.66;80.35
18504;BME280;9381;54.244;10.074;2023-03-17T22:53:09;100234.53;;;11.59;80.75
18504;BME280;9381;54.244;10.074;2023-03-17T22:58:10;100226.66;;;11.68;80.85
18504;BME280;9381;54.244;10.074;2023-03-17T23:03:10;100226.66;;;11.68;80.40
18504;BME280;9381;54.244;10.074;2023-03-17T23:08:11;100232.78;;;11.75;80.29
18504;BME280;9381;54.244;10.074;2023-03-17T23:13:11;100214.88;;;11.74;80.31
18504;BME280;9381;54.244;10.074;2023-03-17T23:18:12;100216.66;;;11.69;80.74
18504;BME280;9381;54.244;10.074;2023-03-17T23:23:12;100221.22;;;11.68;81.03
18504;BME280;9381;54.244;10.074;2023-03-17T23:28:12;100216.75;;;11.63;81.40
18504;BME280;9381;54.244;10.074;2023-03-17T23:33:14;100200.97;;;11.60;81.24
18504;BME280;9381;54.244;10.074;2023-03-17T23:38:17;100204.00;;;11.52;81.75
18504;BME280;9381;54.244;10.074;2023-03-17T23:43:21;100205.88;;;11.40;82.46
18504;BME280;9381;54.244;10.074;2023-03-17T23:48:21;100199.91;;;11.38;82.19
18504;BME280;9381;54.244;10.074;2023-03-17T23:53:23;100205.66;;;11.30;82.66
18504;BME280;9381;54.244;10.074;2023-03-17T23:58:24;100208.94;;;11.32;82.18
